createdAt,value
2022-10-23T00:02:52.516Z,1001.25
2022-10-23T00:12:58.382Z,1001.09
2022-10-23T00:23:05.499Z,1001.17
2022-10-23T00:33:11.320Z,1001.27
2022-10-23T00:43:19.031Z,1001.25
2022-10-23T00:53:24.716Z,1001.26
2022-10-23T01:03:32.378Z,1001.22
2022-10-23T01:13:38.314Z,1001.10
2022-10-23T01:23:45.992Z,1001.05
2022-10-23T01:33:51.949Z,1001.04
2022-10-23T01:43:59.284Z,1000.94
2022-10-23T01:54:05.026Z,1000.94
2022-10-23T02:04:12.028Z,1000.89
2022-10-23T02:14:17.514Z,1000.67
2022-10-23T02:24:24.758Z,1000.52
2022-10-23T02:34:30.461Z,1000.37
2022-10-23T02:44:38.126Z,1000.41
2022-10-23T02:54:43.813Z,1000.49
2022-10-23T03:04:50.735Z,1000.56
2022-10-23T03:14:56.679Z,1000.47
2022-10-23T03:25:04.267Z,1000.48
2022-10-23T03:35:09.739Z,1000.52
2022-10-23T03:45:17.110Z,1000.51
2022-10-23T03:55:23.105Z,1000.36
2022-10-23T04:05:30.705Z,1000.44
2022-10-23T04:15:36.510Z,1000.50
2022-10-23T04:25:44.162Z,1000.49
2022-10-23T04:35:50.215Z,1000.51
2022-10-23T04:45:58.082Z,1000.42
2022-10-23T04:56:04.006Z,1000.39
2022-10-23T05:06:11.305Z,1000.44
2022-10-23T05:16:17.225Z,1000.32
2022-10-23T05:26:24.738Z,1000.30
2022-10-23T05:36:30.120Z,1000.17
2022-10-23T05:46:37.631Z,1000.33
2022-10-23T05:56:43.498Z,1000.29
2022-10-23T06:06:51.047Z,1000.29
2022-10-23T06:16:56.995Z,1000.35
2022-10-23T06:27:05.250Z,1000.34
2022-10-23T06:37:11.553Z,1000.26
2022-10-23T06:47:19.239Z,1000.34
2022-10-23T06:57:24.864Z,1000.44
2022-10-23T07:07:33.053Z,1000.47
2022-10-23T07:17:39.425Z,1000.19
2022-10-23T07:27:45.652Z,1000.20
2022-10-23T07:37:51.483Z,1000.22
2022-10-23T07:47:57.079Z,1000.19
2022-10-23T07:58:03.003Z,1000.09
2022-10-23T08:08:08.566Z,999.97
2022-10-23T08:18:14.224Z,999.81
2022-10-23T08:28:20.298Z,999.83
2022-10-23T08:38:26.165Z,999.98
2022-10-23T08:48:32.016Z,999.85
2022-10-23T08:58:38.130Z,999.67
2022-10-23T09:08:43.776Z,999.59
2022-10-23T09:18:49.942Z,999.56
2022-10-23T09:28:55.596Z,999.41
2022-10-23T09:39:01.353Z,999.45
2022-10-23T09:49:07.543Z,999.32
2022-10-23T09:59:13.510Z,999.15
2022-10-23T10:09:19.683Z,998.97
2022-10-23T10:19:25.791Z,998.96
2022-10-23T10:29:31.680Z,998.78
2022-10-23T10:39:37.298Z,998.69
2022-10-23T10:49:43.065Z,998.60
2022-10-23T10:59:48.947Z,998.35
2022-10-23T11:09:54.861Z,998.21
2022-10-23T11:20:00.763Z,998.09
2022-10-23T11:30:06.996Z,997.86
2022-10-23T11:40:12.431Z,997.77
2022-10-23T11:50:18.494Z,997.70
2022-10-23T12:00:24.542Z,997.41
2022-10-23T12:10:30.510Z,997.24
2022-10-23T12:20:36.976Z,997.17
2022-10-23T12:30:43.648Z,997.12
2022-10-23T12:40:51.541Z,997.15
2022-10-23T12:50:57.270Z,996.86
2022-10-23T13:01:08.820Z,996.70
2022-10-23T13:12:34.849Z,996.47
2022-10-23T13:22:42.864Z,996.49
2022-10-23T13:32:49.441Z,996.43
2022-10-23T13:42:57.090Z,996.49
2022-10-23T13:53:02.805Z,996.35
2022-10-23T14:03:10.880Z,996.27
2022-10-23T14:13:17.110Z,996.17
2022-10-23T14:23:23.433Z,996.16
2022-10-23T14:33:29.603Z,996.02
2022-10-23T14:43:35.739Z,996.11
2022-10-23T14:53:41.919Z,995.92
2022-10-23T15:03:48.929Z,995.92
2022-10-23T15:13:55.359Z,995.80
2022-10-23T15:24:01.740Z,995.84
2022-10-23T15:34:07.669Z,995.81
2022-10-23T15:44:14.492Z,995.50
2022-10-23T15:54:20.714Z,995.35
2022-10-23T16:04:27.156Z,995.16
2022-10-23T16:14:33.184Z,995.07
2022-10-23T16:24:40.782Z,994.96
2022-10-23T16:34:47.458Z,995.05
2022-10-23T16:44:53.790Z,994.98
2022-10-23T16:55:00.595Z,994.82
2022-10-23T17:05:07.606Z,994.75
2022-10-23T17:15:13.784Z,994.79
2022-10-23T17:25:19.351Z,994.89
2022-10-23T17:35:26.673Z,994.76
2022-10-23T17:45:32.360Z,994.75
2022-10-23T17:55:39.879Z,994.63
2022-10-23T18:05:45.735Z,994.67
2022-10-23T18:15:51.294Z,994.59
2022-10-23T18:25:59.638Z,994.36
2022-10-23T18:36:06.001Z,994.25
2022-10-23T18:46:13.867Z,993.98
2022-10-23T18:56:19.407Z,993.65
2022-10-23T19:06:26.909Z,993.52
2022-10-23T19:16:32.729Z,993.50
2022-10-23T19:26:40.060Z,993.45
2022-10-23T19:36:45.890Z,993.49
2022-10-23T19:46:53.790Z,993.62
2022-10-23T19:56:59.129Z,993.95
2022-10-23T20:07:06.804Z,994.30
2022-10-23T20:17:12.536Z,994.47
2022-10-23T20:27:19.636Z,995.03
2022-10-23T20:37:25.538Z,995.20
2022-10-23T20:47:31.039Z,995.36
2022-10-23T20:57:37.500Z,995.26
2022-10-23T21:07:43.186Z,995.21
2022-10-23T21:17:49.159Z,995.53
2022-10-23T21:27:54.599Z,995.21
2022-10-23T21:38:00.519Z,995.64
2022-10-23T21:48:06.151Z,995.34
2022-10-23T21:58:11.754Z,995.07
2022-10-23T22:08:17.560Z,995.05
2022-10-23T22:18:23.055Z,995.12
2022-10-23T22:28:28.499Z,994.88
2022-10-23T22:38:33.870Z,994.97
2022-10-23T22:48:39.222Z,994.82
2022-10-23T22:58:44.764Z,994.81
2022-10-23T23:08:50.421Z,995.10
2022-10-23T23:18:56.178Z,995.02
2022-10-23T23:29:01.796Z,994.98
2022-10-23T23:39:07.489Z,994.99
2022-10-23T23:49:13.193Z,995.22
2022-10-23T23:59:18.999Z,995.39
